Owatonna Airport

About
Name: Owatonna Airport
Identifier:  OWA/KOWA
Local Time:  25. Aug 04:28 CDT
Location
Flights per Day
0 flights
Distance: 1,027km (638mi)
Punctuality
50% (0 flights per day delayed)
Delay Average: 13 minutes
Current Weather
 19 C (Humidity: 72%)
  5kt (9km/h / 5mph) from 360°
  16km (10 mi.)
 
 METAR KOWA 211437Z AUTO 36005KT 10SM CLR 19/14 A3008 RMK AO2

Current Flights

Departures
Number Departure To Airline
Arrivals
Number Arrival From Airline

Current Delays

Departures
N/A
Arrivals
N/A

Destinations

Top Destinations
Airport Flights
per week
Seats
per week
  Oklahoma City (PWA) 0 - 0 0
  Rochester (RST) 0 - 0 0
  Green Bay (GRB) 0 - 0 0
  Milwaukee (MKE) 0 - 0 0
  Fort Frances (YAG) 0 - 0 0

Airlines & Planes

Top Airlines
Airline Flights
per Day
Seats
per Day
Jet Charter Inc ( Franklin Lakes Nj ) 0 -
Nordwind Airlines 0 -
  National Airlines 0 -
  Nolinor Aviation 0 -
Top Plane Types
Model Flights Seats
Beech 58 0.1/day - 0
Piper PA-34-220T Seneca III 0.0/day - 0